Time;durP1;ratioP1;P1;durP2;ratioP2;P2;SDS_P1;SDS_P2;PMS_P1;PMS_P2;Temp;Humidity;BMP_temperature;BMP_pressure;BME280_temperature;BME280_humidity;BME280_pressure;Samples;Min_cycle;Max_cycle;Signal;HPM_P1;HPM_P2
2022/09/06 00:01:13;;;;;;;7.10;1.90;;;;;;;8.43;87.56;101088.37;104829;1273;66107;-79
2022/09/06 00:04:01;;;;;;;6.60;2.10;;;;;;;8.42;87.44;101088.24;104758;1273;73425;-79
2022/09/06 00:06:48;;;;;;;6.90;2.00;;;;;;;8.42;87.63;101085.80;104775;1274;59492;-77
2022/09/06 00:09:36;;;;;;;7.30;2.20;;;;;;;8.41;87.39;101083.35;104115;1273;1002918;-80
2022/09/06 00:12:25;;;;;;;6.40;2.00;;;;;;;8.43;87.54;101082.71;104777;1274;74092;-79
2022/09/06 00:15:13;;;;;;;6.60;2.20;;;;;;;8.43;87.38;101079.55;105164;1273;68388;-81
2022/09/06 00:18:03;;;;;;;6.00;2.10;;;;;;;8.40;87.29;101081.99;104908;1274;74470;-77
2022/09/06 00:20:51;;;;;;;7.10;2.00;;;;;;;8.40;87.22;101079.91;106044;1273;59212;-78
2022/09/06 00:23:40;;;;;;;5.70;1.70;;;;;;;8.40;87.23;101084.15;105743;1273;60761;-80
2022/09/06 00:26:27;;;;;;;6.50;2.10;;;;;;;8.42;87.66;101088.79;104985;1273;71598;-80
2022/09/06 00:29:15;;;;;;;8.20;1.90;;;;;;;8.45;87.45;101086.34;105067;1273;68642;-79
2022/09/06 00:32:03;;;;;;;6.20;1.90;;;;;;;8.44;87.67;101080.73;105053;1273;72925;-80
2022/09/06 00:34:52;;;;;;;6.70;2.00;;;;;;;8.41;87.95;101079.28;104765;1273;59324;-78
2022/09/06 00:37:40;;;;;;;8.00;2.50;;;;;;;8.37;87.97;101085.52;104808;1273;61064;-78
2022/09/06 00:40:32;;;;;;;9.10;2.40;;;;;;;8.30;88.66;101081.09;105224;1273;72979;-80
2022/09/06 00:43:21;;;;;;;8.00;2.60;;;;;;;8.27;88.87;101081.25;104931;1273;69393;-79
2022/09/06 00:46:18;;;;;;;10.30;2.60;;;;;;;8.26;89.18;101086.06;104827;1273;71565;-79
2022/09/06 00:49:30;;;;;;;10.10;2.70;;;;;;;8.27;89.26;101084.45;105160;1274;61350;-78
2022/09/06 00:52:19;;;;;;;10.50;2.90;;;;;;;8.29;89.51;101083.30;105104;1273;60548;-77
2022/09/06 00:55:08;;;;;;;10.00;2.80;;;;;;;8.28;89.42;101083.17;104841;1274;71239;-77
2022/09/06 00:57:56;;;;;;;10.70;3.60;;;;;;;8.28;89.53;101081.91;104762;1273;69668;-77
2022/09/06 01:00:44;;;;;;;9.20;2.40;;;;;;;8.33;89.79;101080.26;104809;1273;73946;-77
2022/09/06 01:03:33;;;;;;;8.80;2.60;;;;;;;8.36;89.35;101082.60;103866;1273;1534828;-78
2022/09/06 01:06:29;;;;;;;6.60;2.10;;;;;;;8.40;89.57;101079.04;104912;1276;60682;-77
2022/09/06 01:09:34;;;;;;;8.60;2.20;;;;;;;8.45;89.39;101079.46;104780;1273;72729;-77
2022/09/06 01:13:18;;;;;;;6.50;2.40;;;;;;;8.50;89.39;101080.64;104723;1274;69185;-76
2022/09/06 01:16:29;;;;;;;7.50;2.20;;;;;;;8.61;89.51;101079.88;104154;1282;71539;-79
2022/09/06 01:20:08;;;;;;;5.60;1.80;;;;;;;8.72;89.22;101082.66;103988;1282;61466;-78
2022/09/06 01:23:46;;;;;;;6.30;1.90;;;;;;;8.84;88.87;101082.89;104439;1282;59308;-78
2022/09/06 01:27:13;;;;;;;7.10;2.00;;;;;;;8.92;88.26;101084.92;104367;1282;71194;-77
2022/09/06 01:30:13;;;;;;;6.50;2.00;;;;;;;8.98;88.13;101079.29;104390;1282;69564;-78
2022/09/06 01:33:47;;;;;;;5.90;2.00;;;;;;;9.04;87.95;101081.09;104307;1282;71859;-77
2022/09/06 01:37:01;;;;;;;5.90;2.00;;;;;;;9.10;88.08;101076.71;104260;1281;59391;-77
2022/09/06 01:39:57;;;;;;;6.10;1.90;;;;;;;9.14;88.33;101078.61;104538;1282;61068;-77
2022/09/06 01:42:47;;;;;;;6.50;2.10;;;;;;;9.17;88.11;101080.17;104198;1281;72937;-76
2022/09/06 01:46:11;;;;;;;7.60;2.30;;;;;;;9.24;88.15;101077.91;104075;1282;67700;-76
2022/09/06 01:49:33;;;;;;;8.00;2.10;;;;;;;9.29;88.61;101081.50;104626;1282;74745;-80
2022/09/06 01:52:48;;;;;;;8.00;2.20;;;;;;;9.34;88.60;101085.80;104589;1276;61267;-78
2022/09/06 01:56:12;;;;;;;7.30;2.40;;;;;;;9.42;88.22;101087.67;104793;1273;60959;-79
2022/09/06 01:59:36;;;;;;;6.40;1.90;;;;;;;9.50;88.30;101086.13;105003;1273;73597;-78
2022/09/06 02:03:25;;;;;;;6.30;2.30;;;;;;;9.60;88.26;101088.45;104866;1273;68796;-80
2022/09/06 02:06:20;;;;;;;7.90;2.10;;;;;;;9.71;88.00;101089.56;104767;1273;70565;-77
2022/09/06 02:09:21;;;;;;;7.30;2.50;;;;;;;9.77;87.72;101089.95;105040;1273;59373;-79
2022/09/06 02:12:13;;;;;;;6.80;2.30;;;;;;;9.81;87.90;101090.08;104786;1274;61871;-78
2022/09/06 02:15:12;;;;;;;6.10;1.80;;;;;;;9.81;88.33;101085.95;104780;1274;74005;-80
2022/09/06 02:18:33;;;;;;;6.40;1.80;;;;;;;9.84;87.80;101081.70;104938;1273;69181;-80
2022/09/06 02:21:29;;;;;;;5.70;1.80;;;;;;;9.93;87.34;101086.54;105091;1273;74413;-79
2022/09/06 02:24:24;;;;;;;5.80;1.50;;;;;;;10.01;86.76;101086.20;104840;1273;59365;-79
2022/09/06 02:27:13;;;;;;;5.90;1.70;;;;;;;10.09;86.10;101085.59;104144;1281;61647;-81
2022/09/06 02:30:04;;;;;;;5.60;1.40;;;;;;;10.15;85.28;101089.48;104215;1281;71216;-77
2022/09/06 02:33:01;;;;;;;6.10;1.40;;;;;;;10.19;85.28;101088.67;104313;1281;69098;-77
2022/09/06 02:35:53;;;;;;;5.20;1.50;;;;;;;10.23;84.63;101093.95;104125;1281;74717;-80
2022/09/06 02:38:43;;;;;;;5.90;1.50;;;;;;;10.28;84.48;101087.68;104323;1281;61241;-79
2022/09/06 02:41:32;;;;;;;4.90;1.20;;;;;;;10.29;84.54;101082.98;104174;1281;61003;-80
2022/09/06 02:44:20;;;;;;;4.80;1.30;;;;;;;10.32;83.36;101082.11;104254;1281;72496;-78
2022/09/06 02:47:08;;;;;;;7.00;1.50;;;;;;;10.35;83.31;101077.48;104462;1281;66110;-76
2022/09/06 02:49:57;;;;;;;5.90;1.40;;;;;;;10.36;83.35;101071.73;104315;1281;73427;-78
2022/09/06 02:52:44;;;;;;;5.10;1.10;;;;;;;10.37;83.26;101073.64;104388;1281;59471;-78
2022/09/06 02:55:33;;;;;;;4.40;0.90;;;;;;;10.37;83.61;101077.01;104439;1281;61691;-81
2022/09/06 02:58:21;;;;;;;4.90;1.30;;;;;;;10.36;83.66;101070.66;104486;1273;72966;-78
2022/09/06 03:01:09;;;;;;;4.10;1.20;;;;;;;10.37;83.40;101072.41;104859;1274;68362;-78
2022/09/06 03:03:57;;;;;;;5.10;1.40;;;;;;;10.38;83.24;101072.52;104872;1273;72831;-78
2022/09/06 03:06:45;;;;;;;4.80;1.20;;;;;;;10.40;83.52;101066.57;104857;1273;59363;-79
2022/09/06 03:09:33;;;;;;;4.10;1.10;;;;;;;10.42;83.43;101070.88;104895;1274;61131;-78
2022/09/06 03:12:21;;;;;;;6.00;1.20;;;;;;;10.44;83.67;101072.19;104903;1274;72967;-77
2022/09/06 03:15:12;;;;;;;4.70;1.20;;;;;;;10.45;83.38;101072.48;104836;1273;68591;-79
2022/09/06 03:18:01;;;;;;;5.50;1.60;;;;;;;10.46;83.34;101074.90;104876;1273;70283;-78
2022/09/06 03:20:51;;;;;;;4.40;1.30;;;;;;;10.46;83.06;101071.48;104846;1273;59984;-79
2022/09/06 03:23:40;;;;;;;4.50;1.20;;;;;;;10.51;83.36;101071.94;105030;1274;59349;-78
2022/09/06 03:26:29;;;;;;;4.60;1.20;;;;;;;10.54;84.29;101065.48;104805;1277;70619;-79
2022/09/06 03:29:18;;;;;;;4.90;1.20;;;;;;;10.57;85.23;101059.31;106241;1273;68040;-78
2022/09/06 03:32:09;;;;;;;5.90;1.70;;;;;;;10.56;85.18;101054.74;105395;1273;71288;-78
2022/09/06 03:34:58;;;;;;;5.80;1.50;;;;;;;10.56;85.23;101049.77;104998;1273;59359;-78
2022/09/06 03:37:46;;;;;;;5.40;1.60;;;;;;;10.55;85.27;101054.46;104833;1277;59367;-77
2022/09/06 03:40:34;;;;;;;7.40;1.40;;;;;;;10.55;85.89;101063.64;104810;1273;73233;-76
2022/09/06 03:43:26;;;;;;;5.70;1.40;;;;;;;10.56;85.70;101070.91;105097;1273;68075;-76
2022/09/06 03:46:14;;;;;;;5.40;1.40;;;;;;;10.52;85.77;101074.15;104950;1274;72915;-77
2022/09/06 03:49:02;;;;;;;5.00;1.40;;;;;;;10.50;85.71;101069.34;105066;1274;61265;-77
2022/09/06 03:51:50;;;;;;;5.40;1.70;;;;;;;10.48;86.20;101070.84;104982;1275;60560;-78
2022/09/06 03:54:39;;;;;;;5.10;1.50;;;;;;;10.48;86.59;101073.52;104754;1275;71573;-77
2022/09/06 03:57:28;;;;;;;5.40;1.50;;;;;;;10.47;86.96;101072.36;104760;1273;66810;-79
2022/09/06 04:00:16;;;;;;;6.40;1.40;;;;;;;10.48;87.00;101073.16;104769;1278;71574;-79
2022/09/06 04:03:04;;;;;;;5.10;1.30;;;;;;;10.48;86.92;101073.38;104614;1275;60612;-77
2022/09/06 04:05:52;;;;;;;5.20;1.50;;;;;;;10.48;87.17;101069.27;104907;1273;62161;-76
2022/09/06 04:08:40;;;;;;;5.70;1.30;;;;;;;10.48;87.28;101069.44;104893;1274;71468;-76
2022/09/06 04:11:28;;;;;;;5.50;1.40;;;;;;;10.47;87.64;101066.32;104785;1274;68595;-75
2022/09/06 04:14:16;;;;;;;4.80;1.40;;;;;;;10.45;87.65;101067.31;104760;1277;71612;-76
2022/09/06 04:17:04;;;;;;;5.40;1.50;;;;;;;10.43;87.83;101061.59;104755;1274;60254;-77
2022/09/06 04:19:53;;;;;;;5.60;1.60;;;;;;;10.44;88.28;101062.24;104770;1274;61044;-77
2022/09/06 04:22:41;;;;;;;5.30;1.30;;;;;;;10.46;88.57;101059.14;104930;1274;73907;-77
2022/09/06 04:25:29;;;;;;;5.00;1.50;;;;;;;10.48;88.63;101053.98;105464;1274;69532;-77
2022/09/06 04:28:18;;;;;;;6.80;1.40;;;;;;;10.53;88.25;101061.14;104932;1274;74698;-77
2022/09/06 04:31:06;;;;;;;7.30;1.80;;;;;;;10.58;88.04;101062.98;104910;1274;61556;-77
2022/09/06 04:33:54;;;;;;;6.40;1.80;;;;;;;10.61;87.54;101057.11;104938;1274;61865;-79
2022/09/06 04:36:42;;;;;;;10.00;2.20;;;;;;;10.66;88.20;101054.31;104965;1274;74100;-79
2022/09/06 04:39:35;;;;;;;7.40;2.20;;;;;;;10.73;88.43;101059.42;105045;1274;68755;-79
2022/09/06 04:42:23;;;;;;;11.00;2.10;;;;;;;10.76;87.77;101059.91;104979;1274;73435;-79
2022/09/06 04:45:11;;;;;;;6.90;2.10;;;;;;;10.79;87.86;101061.86;105092;1274;59426;-78
2022/09/06 04:47:59;;;;;;;8.60;2.30;;;;;;;10.83;87.86;101061.04;105036;1274;60560;-78
2022/09/06 04:50:47;;;;;;;7.50;2.30;;;;;;;10.90;87.67;101058.83;105084;1274;73290;-80
2022/09/06 04:53:35;;;;;;;8.60;2.20;;;;;;;10.97;88.05;101062.86;104956;1274;68729;-78
2022/09/06 04:56:25;;;;;;;8.10;2.60;;;;;;;11.05;87.75;101066.97;105294;1274;72850;-80
2022/09/06 04:59:13;;;;;;;8.90;2.60;;;;;;;11.13;88.00;101064.53;104919;1274;61374;-80
2022/09/06 05:02:01;;;;;;;9.80;2.70;;;;;;;11.17;87.36;101062.09;104984;1274;60376;-79
2022/09/06 05:04:51;;;;;;;10.40;2.60;;;;;;;11.23;87.10;101064.18;105048;1274;72365;-80
2022/09/06 05:07:39;;;;;;;9.60;2.70;;;;;;;11.30;86.62;101063.77;105187;1274;66737;-80
2022/09/06 05:10:27;;;;;;;12.10;3.10;;;;;;;11.36;86.45;101063.73;104734;1277;73416;-80
2022/09/06 05:13:15;;;;;;;6.70;2.60;;;;;;;11.41;86.41;101061.63;105029;1274;61531;-79
2022/09/06 05:16:06;;;;;;;7.10;2.60;;;;;;;11.44;86.20;101062.15;104930;1274;60598;-79
2022/09/06 05:18:54;;;;;;;9.90;2.90;;;;;;;11.47;85.76;101060.86;104990;1274;74121;-79
2022/09/06 05:21:42;;;;;;;9.10;2.80;;;;;;;11.51;85.47;101061.89;105308;1274;68031;-80
2022/09/06 05:24:30;;;;;;;7.90;2.80;;;;;;;11.55;85.47;101061.39;105277;1274;72887;-79
2022/09/06 05:27:18;;;;;;;9.70;2.70;;;;;;;11.61;85.23;101062.29;105027;1274;59323;-78
2022/09/06 05:30:07;;;;;;;7.50;2.80;;;;;;;11.69;85.00;101066.17;105182;1274;62078;-77
2022/09/06 05:32:55;;;;;;;7.00;1.80;;;;;;;11.74;82.80;101065.11;105382;1274;70163;-80
2022/09/06 05:35:44;;;;;;;7.00;1.60;;;;;;;11.80;80.87;101059.59;105213;1274;68582;-77
2022/09/06 05:38:33;;;;;;;5.10;1.30;;;;;;;11.87;79.40;101057.85;105206;1273;74206;-76
2022/09/06 05:41:22;;;;;;;5.20;1.50;;;;;;;11.95;77.92;101057.39;105205;1274;59382;-74
2022/09/06 05:44:11;;;;;;;9.00;4.00;;;;;;;12.04;77.66;101059.80;104976;1274;59425;-75
2022/09/06 05:46:59;;;;;;;7.50;1.70;;;;;;;12.15;77.09;101061.91;105260;1274;73899;-75
2022/09/06 05:49:47;;;;;;;5.70;1.20;;;;;;;12.25;75.51;101054.27;105622;1274;68572;-75
2022/09/06 05:52:37;;;;;;;6.30;1.80;;;;;;;12.40;74.61;101058.43;105156;1274;71625;-77
2022/09/06 05:55:25;;;;;;;5.20;1.30;;;;;;;12.55;74.20;101059.81;105059;1274;59320;-75
2022/09/06 05:58:12;;;;;;;6.90;1.40;;;;;;;12.71;72.69;101056.91;104895;1274;60584;-75
2022/09/06 06:01:18;;;;;;;6.10;1.60;;;;;;;12.83;71.42;101056.28;105234;1274;70952;-77
2022/09/06 06:04:07;;;;;;;7.20;1.40;;;;;;;12.92;71.32;101059.53;104828;1274;70018;-77
2022/09/06 06:06:55;;;;;;;5.90;1.10;;;;;;;13.08;71.27;101064.15;105140;1274;72948;-79
2022/09/06 06:09:44;;;;;;;5.60;1.30;;;;;;;13.24;70.68;101058.65;104884;1274;59695;-75
2022/09/06 06:12:32;;;;;;;6.20;1.30;;;;;;;13.40;70.62;101060.05;104959;1274;59575;-78
2022/09/06 06:15:20;;;;;;;5.40;1.20;;;;;;;13.52;69.61;101060.19;104810;1274;72752;-77
2022/09/06 06:18:08;;;;;;;5.90;1.30;;;;;;;13.71;69.33;101057.42;104925;1273;68546;-76
2022/09/06 06:21:18;;;;;;;4.50;1.10;;;;;;;13.90;68.79;101056.33;105098;1274;73939;-76
2022/09/06 06:24:05;;;;;;;5.80;1.50;;;;;;;14.18;67.62;101055.81;104657;1275;61026;-75
2022/09/06 06:26:53;;;;;;;6.80;1.50;;;;;;;15.73;65.01;101051.38;104887;1274;61020;-76
2022/09/06 06:29:41;;;;;;;7.60;1.70;;;;;;;18.19;56.86;101039.91;104688;1274;73946;-77
2022/09/06 06:32:29;;;;;;;5.10;1.30;;;;;;;20.48;50.39;101038.50;105047;1273;69659;-76
2022/09/06 06:35:17;;;;;;;6.50;1.50;;;;;;;22.13;45.43;101034.40;105265;1273;74540;-76
2022/09/06 06:38:05;;;;;;;5.10;1.30;;;;;;;23.66;42.61;101028.73;105115;1273;59289;-76
2022/09/06 06:40:53;;;;;;;6.40;1.30;;;;;;;25.10;40.24;101026.45;104788;1273;60948;-76
2022/09/06 06:43:54;;;;;;;6.70;1.20;;;;;;;26.46;38.00;101029.11;105091;1273;71232;-76
2022/09/06 06:46:42;;;;;;;5.40;1.10;;;;;;;27.56;34.49;101019.73;104880;1273;69589;-75
2022/09/06 06:49:30;;;;;;;8.40;3.60;;;;;;;28.53;33.21;101018.84;105159;1273;74486;-72
2022/09/06 06:52:20;;;;;;;9.50;3.30;;;;;;;29.27;32.40;101019.85;104938;1271;59317;-75
2022/09/06 06:55:08;;;;;;;5.30;1.10;;;;;;;28.42;31.29;101020.39;105092;1273;60452;-75
2022/09/06 06:57:59;;;;;;;6.40;1.10;;;;;;;26.54;32.73;101026.80;105174;1273;73961;-75
2022/09/06 07:00:47;;;;;;;8.80;1.60;;;;;;;26.82;33.61;101024.70;104836;1273;68531;-75
2022/09/06 07:03:35;;;;;;;6.60;1.30;;;;;;;26.90;33.56;101017.64;104959;1273;73049;-76
2022/09/06 07:06:29;;;;;;;5.70;1.10;;;;;;;27.48;31.44;101012.66;104892;1273;59403;-77
2022/09/06 07:09:38;;;;;;;5.00;1.20;;;;;;;28.38;30.49;101013.11;104877;1273;62081;-76
2022/09/06 07:12:46;;;;;;;6.10;1.20;;;;;;;29.21;30.20;101014.60;104913;1273;73084;-78
2022/09/06 07:15:34;;;;;;;4.60;1.00;;;;;;;29.57;27.80;101014.21;105293;1273;68118;-78
2022/09/06 07:18:22;;;;;;;5.40;0.90;;;;;;;29.54;28.12;101012.17;105047;1273;72750;-76
2022/09/06 07:21:13;;;;;;;4.90;0.80;;;;;;;29.62;27.50;101011.48;104837;1273;59666;-76
2022/09/06 07:24:20;;;;;;;4.00;0.60;;;;;;;29.62;26.62;101012.40;104805;1273;59982;-77
2022/09/06 07:27:09;;;;;;;4.60;0.80;;;;;;;29.89;27.15;101013.33;105353;1273;72406;-76
2022/09/06 07:30:18;;;;;;;4.10;0.80;;;;;;;30.62;26.23;101013.08;105236;1273;67147;-76
2022/09/06 07:33:07;;;;;;;3.90;0.70;;;;;;;31.11;24.34;101013.52;104933;1273;73557;-76
2022/09/06 07:36:03;;;;;;;3.40;0.70;;;;;;;31.73;23.60;101007.67;105382;1273;59394;-75
2022/09/06 07:38:51;;;;;;;3.60;0.70;;;;;;;32.04;23.07;101003.41;104872;1273;60443;-76
2022/09/06 07:41:39;;;;;;;3.90;0.70;;;;;;;32.26;23.93;100997.39;104937;1274;74006;-73
2022/09/06 07:44:28;;;;;;;4.50;0.70;;;;;;;32.43;23.19;100997.91;105070;1273;68592;-74
2022/09/06 07:47:16;;;;;;;3.80;0.70;;;;;;;32.40;22.41;100994.43;105140;1273;73946;-75
2022/09/06 07:50:29;;;;;;;3.70;0.60;;;;;;;32.20;22.58;100989.54;105319;1273;59202;-74
2022/09/06 07:53:37;;;;;;;5.00;0.90;;;;;;;32.17;22.45;100989.90;105128;1273;61900;-75
2022/09/06 07:56:25;;;;;;;3.20;0.70;;;;;;;32.48;23.03;100983.48;104920;1273;71569;-74
2022/09/06 07:59:13;;;;;;;2.70;0.40;;;;;;;32.57;22.60;100983.48;105089;1273;66888;-74
2022/09/06 08:02:00;;;;;;;3.70;0.80;;;;;;;32.68;21.85;100981.34;105140;1274;74742;-74
2022/09/06 08:04:48;;;;;;;3.50;0.60;;;;;;;32.84;21.66;100985.21;104957;1274;59394;-73
2022/09/06 08:07:38;;;;;;;4.40;0.60;;;;;;;32.57;20.83;100986.36;105017;1273;62108;-74
2022/09/06 08:10:26;;;;;;;3.40;0.60;;;;;;;32.69;21.05;100990.20;105219;1273;74203;-74
2022/09/06 08:13:14;;;;;;;2.90;0.50;;;;;;;32.82;21.28;100989.54;105023;1273;68564;-74
2022/09/06 08:16:06;;;;;;;3.80;0.60;;;;;;;32.81;20.61;100985.37;105202;1273;72968;-76
2022/09/06 08:19:00;;;;;;;3.10;0.60;;;;;;;32.84;20.12;100983.50;104862;1273;59378;-75
2022/09/06 08:21:48;;;;;;;3.50;0.60;;;;;;;32.86;20.20;100982.01;105224;1273;60543;-75
2022/09/06 08:24:37;;;;;;;3.10;0.60;;;;;;;32.96;20.60;100977.78;105369;1273;73884;-74
2022/09/06 08:27:25;;;;;;;3.40;0.70;;;;;;;33.01;19.88;100979.59;105326;1273;69966;-75
2022/09/06 08:30:13;;;;;;;3.00;0.50;;;;;;;32.91;19.40;100972.73;104881;1273;74782;-74
2022/09/06 08:33:02;;;;;;;3.80;0.70;;;;;;;32.89;19.89;100972.73;104992;1274;59289;-76
2022/09/06 08:35:57;;;;;;;4.20;0.70;;;;;;;32.72;19.21;100974.06;105023;1273;62085;-77
2022/09/06 08:38:46;;;;;;;4.40;0.70;;;;;;;32.84;19.13;100974.41;105547;1274;72475;-74
2022/09/06 08:41:59;;;;;;;2.90;0.60;;;;;;;32.96;19.72;100972.70;105172;1274;66655;-75
2022/09/06 08:44:52;;;;;;;5.40;0.60;;;;;;;33.01;19.61;100974.02;105049;1273;72918;-76
2022/09/06 08:47:40;;;;;;;3.10;0.50;;;;;;;33.02;19.38;100973.70;104855;1274;59732;-76
2022/09/06 08:50:30;;;;;;;2.90;0.60;;;;;;;33.17;19.22;100966.54;105481;1273;60710;-76
2022/09/06 08:53:18;;;;;;;3.70;0.60;;;;;;;33.04;18.12;100964.20;104914;1273;73251;-75
2022/09/06 08:56:33;;;;;;;3.80;0.60;;;;;;;33.05;18.97;100961.09;104851;1273;68368;-76
2022/09/06 08:59:22;;;;;;;3.90;0.60;;;;;;;32.97;18.86;100961.65;105040;1273;71707;-75
2022/09/06 09:02:17;;;;;;;5.00;0.60;;;;;;;32.88;17.83;100958.84;105045;1273;59304;-74
2022/09/06 09:05:06;;;;;;;4.20;0.70;;;;;;;32.76;18.76;100954.30;105054;1274;59539;-75
2022/09/06 09:08:17;;;;;;;3.90;0.70;;;;;;;32.87;18.61;100953.10;104794;1273;72446;-75
2022/09/06 09:11:24;;;;;;;3.40;0.60;;;;;;;32.93;18.49;100951.59;104881;1274;68403;-78
2022/09/06 09:14:28;;;;;;;4.10;0.60;;;;;;;32.96;18.05;100950.55;104952;1273;73481;-76
2022/09/06 09:17:23;;;;;;;2.10;0.50;;;;;;;32.97;18.07;100948.86;105110;1273;59406;-75
2022/09/06 09:20:12;;;;;;;3.90;0.70;;;;;;;32.99;17.94;100949.48;105260;1273;59413;-76
2022/09/06 09:23:00;;;;;;;3.40;0.70;;;;;;;33.01;17.27;100947.99;104958;1274;74299;-75
2022/09/06 09:25:51;;;;;;;5.10;0.70;;;;;;;32.73;18.19;100946.55;105202;1273;68650;-76
2022/09/06 09:29:03;;;;;;;3.50;0.60;;;;;;;32.73;18.46;100940.02;105322;1273;72833;-77
2022/09/06 09:31:55;;;;;;;3.50;0.70;;;;;;;32.77;19.08;100934.75;104873;1274;59555;-76
2022/09/06 09:34:43;;;;;;;3.30;0.70;;;;;;;32.58;18.46;100929.69;105158;1273;61048;-75
2022/09/06 09:37:31;;;;;;;3.50;0.60;;;;;;;32.46;18.41;100924.73;105045;1273;72428;-76
2022/09/06 09:40:53;;;;;;;3.30;0.60;;;;;;;32.09;17.96;100927.83;105076;1273;68655;-75
2022/09/06 09:43:57;;;;;;;3.00;0.70;;;;;;;32.15;17.14;100923.91;105228;1273;71670;-76
2022/09/06 09:46:50;;;;;;;4.00;0.80;;;;;;;32.47;17.85;100919.12;104959;1274;59542;-76
2022/09/06 09:49:38;;;;;;;3.70;0.60;;;;;;;32.75;16.90;100922.05;105025;1273;59419;-76
2022/09/06 09:52:29;;;;;;;2.70;0.60;;;;;;;32.28;16.44;100915.73;105177;1273;73883;-76
2022/09/06 09:55:24;;;;;;;3.80;0.60;;;;;;;32.22;17.27;100909.09;105117;1274;70270;-74
2022/09/06 09:58:35;;;;;;;3.60;0.50;;;;;;;32.55;18.08;100911.89;104924;1273;71593;-75
2022/09/06 10:01:34;;;;;;;3.70;0.70;;;;;;;32.80;17.33;100909.23;104917;1273;59416;-74
2022/09/06 10:04:42;;;;;;;4.10;0.70;;;;;;;33.29;17.27;100909.16;104854;1273;60471;-75
2022/09/06 10:07:33;;;;;;;3.40;0.60;;;;;;;33.45;17.19;100906.34;105207;1273;74131;-75
2022/09/06 10:10:38;;;;;;;2.60;0.50;;;;;;;33.63;17.21;100904.14;104879;1273;69938;-74
2022/09/06 10:13:29;;;;;;;3.90;0.70;;;;;;;33.67;17.26;100901.44;105153;1273;74554;-75
2022/09/06 10:16:42;;;;;;;3.60;0.50;;;;;;;33.85;16.79;100902.33;104718;1273;59983;-76
2022/09/06 10:19:44;;;;;;;3.60;0.60;;;;;;;33.93;16.16;100898.46;105238;1273;59540;-75
2022/09/06 10:22:43;;;;;;;4.00;0.70;;;;;;;34.07;16.62;100905.77;105154;1273;72675;-76
2022/09/06 10:25:46;;;;;;;4.30;0.70;;;;;;;33.99;16.33;100898.42;105065;1273;69582;-76
2022/09/06 10:28:40;;;;;;;4.10;0.60;;;;;;;33.75;16.08;100898.84;105167;1273;74545;-76
2022/09/06 10:32:26;;;;;;;3.20;0.70;;;;;;;33.32;16.63;100892.67;104819;1273;59333;-76
2022/09/06 10:35:38;;;;;;;4.40;0.70;;;;;;;32.61;16.40;100898.52;104351;1282;62141;-77
2022/09/06 10:39:08;;;;;;;5.90;0.90;;;;;;;32.29;17.11;100896.78;104235;1282;73921;-77
2022/09/06 10:42:08;;;;;;;3.30;0.60;;;;;;;31.94;17.75;100894.20;104014;1282;69613;-77
2022/09/06 10:45:18;;;;;;;7.10;0.80;;;;;;;31.79;18.04;100891.55;104178;1282;74811;-76
2022/09/06 10:48:43;;;;;;;5.70;0.60;;;;;;;31.70;18.20;100887.79;104310;1281;59956;-75
2022/09/06 10:51:45;;;;;;;2.90;0.50;;;;;;;31.88;17.98;100886.75;104542;1282;61894;-76
2022/09/06 10:54:39;;;;;;;3.10;0.80;;;;;;;31.98;17.37;100888.06;104436;1282;70923;-76
2022/09/06 10:57:38;;;;;;;3.20;0.70;;;;;;;31.84;16.78;100890.28;104114;1282;69065;-75
2022/09/06 11:00:48;;;;;;;3.10;0.50;;;;;;;31.56;16.98;100889.74;104239;1282;74426;-76
2022/09/06 11:03:42;;;;;;;3.90;0.70;;;;;;;31.33;16.99;100891.61;104163;1282;59458;-75
2022/09/06 11:06:57;;;;;;;3.80;0.60;;;;;;;30.86;18.08;100886.73;104214;1282;62086;-75
2022/09/06 11:09:54;;;;;;;3.30;0.70;;;;;;;30.78;18.34;100883.72;104347;1282;71154;-75
2022/09/06 11:13:10;;;;;;;4.40;0.80;;;;;;;30.74;17.93;100879.65;104615;1273;68103;-76
2022/09/06 11:16:29;;;;;;;3.60;0.70;;;;;;;29.99;17.91;100883.57;104992;1273;72847;-76
2022/09/06 11:19:38;;;;;;;3.10;0.60;;;;;;;29.49;19.07;100877.07;104980;1273;59691;-76
2022/09/06 11:22:32;;;;;;;2.70;0.60;;;;;;;29.16;19.23;100875.98;104989;1273;60456;-78
2022/09/06 11:25:56;;;;;;;3.60;0.70;;;;;;;29.04;19.40;100872.98;105087;1273;73878;-77
2022/09/06 11:28:52;;;;;;;3.10;0.70;;;;;;;28.71;19.29;100872.78;105253;1273;69166;-76
2022/09/06 11:32:00;;;;;;;4.00;0.60;;;;;;;28.39;19.55;100864.14;105132;1273;72811;-76
2022/09/06 11:35:19;;;;;;;4.80;1.00;;;;;;;28.20;19.62;100860.73;104693;1276;59322;-77
2022/09/06 11:38:14;;;;;;;3.70;0.70;;;;;;;27.81;20.07;100858.73;104816;1273;60468;-73
2022/09/06 11:41:11;;;;;;;3.90;0.70;;;;;;;27.47;20.88;100849.96;104829;1273;73133;-77
2022/09/06 11:43:59;;;;;;;4.70;0.80;;;;;;;27.25;21.47;100846.01;104875;1273;68637;-77
2022/09/06 11:46:47;;;;;;;4.80;0.80;;;;;;;26.80;21.94;100844.75;105081;1273;73937;-74
2022/09/06 11:49:38;;;;;;;4.40;0.70;;;;;;;26.52;22.46;100839.72;104955;1273;59295;-75
2022/09/06 11:53:08;;;;;;;3.90;0.80;;;;;;;26.33;22.91;100834.29;104839;1273;61854;-75
2022/09/06 11:55:59;;;;;;;4.10;0.70;;;;;;;26.21;23.35;100839.88;104864;1273;72522;-76
2022/09/06 11:58:56;;;;;;;2.70;0.70;;;;;;;25.95;23.31;100838.39;105044;1273;66911;-76
2022/09/06 12:02:06;;;;;;;3.30;0.70;;;;;;;25.82;23.94;100839.07;104848;1273;73358;-75
2022/09/06 12:05:02;;;;;;;4.30;1.00;;;;;;;25.57;24.23;100836.06;104740;1273;59322;-76
2022/09/06 12:08:32;;;;;;;3.50;0.60;;;;;;;24.90;24.59;100833.05;104935;1273;59232;-76
2022/09/06 12:11:42;;;;;;;3.20;0.70;;;;;;;24.06;26.08;100828.77;104917;1273;72502;-75
2022/09/06 12:14:41;;;;;;;3.70;0.80;;;;;;;23.29;27.33;100824.18;104895;1273;66853;-77
2022/09/06 12:17:46;;;;;;;4.50;1.00;;;;;;;22.69;28.50;100823.98;104835;1273;73028;-78
2022/09/06 12:20:55;;;;;;;3.80;0.80;;;;;;;22.14;29.10;100817.48;105068;1273;59317;-78
2022/09/06 12:23:43;;;;;;;4.30;0.90;;;;;;;21.75;29.88;100816.31;104938;1273;60737;-77
2022/09/06 12:26:50;;;;;;;4.90;1.10;;;;;;;21.45;29.89;100817.31;104709;1273;72925;-77
2022/09/06 12:29:57;;;;;;;4.40;0.90;;;;;;;21.07;30.57;100816.42;104707;1276;66939;-78
2022/09/06 12:32:50;;;;;;;4.80;1.10;;;;;;;20.73;31.40;100815.65;105142;1273;72970;-78
2022/09/06 12:35:39;;;;;;;4.40;1.00;;;;;;;20.49;31.78;100812.31;105313;1273;59269;-79
2022/09/06 12:38:57;;;;;;;4.30;1.00;;;;;;;20.26;32.30;100805.41;105445;1273;62047;-77
2022/09/06 12:41:53;;;;;;;6.20;1.00;;;;;;;20.03;32.58;100805.14;105011;1273;73467;-78
2022/09/06 12:44:50;;;;;;;3.10;0.70;;;;;;;19.83;33.05;100806.34;105083;1273;69622;-79
2022/09/06 12:47:41;;;;;;;4.20;1.00;;;;;;;19.64;33.91;100801.02;105284;1273;71692;-77
2022/09/06 12:50:30;;;;;;;5.70;1.10;;;;;;;19.47;34.05;100797.98;105292;1273;59708;-77
2022/09/06 12:53:23;;;;;;;4.10;0.90;;;;;;;19.32;34.54;100793.56;105094;1273;59371;-76
2022/09/06 12:56:11;;;;;;;3.40;0.80;;;;;;;19.18;34.72;100791.59;105018;1273;72222;-77
2022/09/06 12:59:22;;;;;;;4.90;0.80;;;;;;;19.06;35.63;100789.45;105244;1273;67914;-76
2022/09/06 13:02:17;;;;;;;4.30;0.80;;;;;;;18.93;35.81;100789.42;104969;1273;74356;-78
2022/09/06 13:05:12;;;;;;;3.00;0.70;;;;;;;18.88;35.29;100790.09;104166;1273;1521187;-75
2022/09/06 13:08:02;;;;;;;4.00;0.90;;;;;;;18.71;35.67;100790.20;105229;1273;60943;-78
2022/09/06 13:10:52;;;;;;;4.10;0.90;;;;;;;18.47;36.45;100788.31;104877;1273;73865;-77
2022/09/06 13:13:48;;;;;;;4.10;0.80;;;;;;;18.34;37.10;100789.20;104791;1273;69719;-76
2022/09/06 13:16:43;;;;;;;3.90;1.00;;;;;;;18.28;37.83;100788.90;105147;1273;72954;-77
2022/09/06 13:19:40;;;;;;;3.90;0.80;;;;;;;18.28;38.24;100789.13;105059;1273;59541;-77
2022/09/06 13:22:44;;;;;;;4.40;0.90;;;;;;;18.28;38.39;100788.92;105264;1273;59362;-78
2022/09/06 13:25:32;;;;;;;4.60;0.90;;;;;;;18.23;38.16;100785.84;104930;1273;72548;-76
2022/09/06 13:28:31;;;;;;;4.00;1.00;;;;;;;18.20;38.42;100786.25;105015;1273;69434;-77
2022/09/06 13:31:20;;;;;;;4.30;1.00;;;;;;;18.18;38.83;100784.52;105235;1273;73548;-77